Time;durP1;ratioP1;P1;durP2;ratioP2;P2;SDS_P1;SDS_P2;PMS_P1;PMS_P2;Temp;Humidity;BMP_temperature;BMP_pressure;BME280_temperature;BME280_humidity;BME280_pressure;Samples;Min_cycle;Max_cycle;Signal;HPM_P1;HPM_P2
2022/01/16 00:04:18;;;;;;;22.10;5.68;;;;;;;-2.10;71.77;101064.97;4392572;32;34600;-64
2022/01/16 00:06:46;;;;;;;12.23;5.53;;;;;;;-2.22;71.52;101060.28;4406439;32;33655;-63
2022/01/16 00:09:13;;;;;;;18.80;6.40;;;;;;;-1.80;69.48;101048.13;4406821;32;33164;-65
2022/01/16 00:11:42;;;;;;;13.25;5.57;;;;;;;-0.78;66.52;101033.06;4405894;32;34559;-66
2022/01/16 00:14:10;;;;;;;12.10;5.80;;;;;;;-0.36;64.36;101031.72;4395717;32;32296;-62
2022/01/16 00:16:39;;;;;;;17.17;6.47;;;;;;;-1.89;68.08;101036.00;4405443;32;33901;-64
2022/01/16 00:19:07;;;;;;;17.92;6.35;;;;;;;-1.02;66.41;101016.91;4394616;32;33430;-66
2022/01/16 00:21:39;;;;;;;14.75;6.30;;;;;;;-0.45;63.63;101040.87;4407429;32;33883;-65
2022/01/16 00:24:08;;;;;;;19.87;6.72;;;;;;;0.06;61.54;101049.78;4393852;32;33669;-63
2022/01/16 00:26:36;;;;;;;14.32;5.75;;;;;;;-2.41;69.24;101051.28;4406849;32;34608;-63
2022/01/16 00:29:07;;;;;;;18.83;7.43;;;;;;;-2.95;71.49;101082.16;4392933;32;32713;-66
2022/01/16 00:31:37;;;;;;;13.88;6.05;;;;;;;-2.81;71.48;101085.56;4406901;32;33946;-62
2022/01/16 00:34:06;;;;;;;21.45;7.47;;;;;;;-2.37;70.21;101038.22;4407067;32;33404;-63
2022/01/16 00:36:34;;;;;;;17.95;6.78;;;;;;;-2.95;72.05;101041.56;4393483;32;34557;-66
2022/01/16 00:39:03;;;;;;;17.95;6.65;;;;;;;-2.73;71.28;101050.94;4407378;32;33090;-64
2022/01/16 00:41:32;;;;;;;20.10;7.43;;;;;;;-3.22;72.58;101060.41;4406413;32;33635;-65
2022/01/16 00:43:59;;;;;;;20.25;6.53;;;;;;;-3.61;73.58;101047.31;4406672;32;33607;-62
2022/01/16 00:46:27;;;;;;;18.95;6.40;;;;;;;-4.00;75.43;101049.34;4393219;32;33417;-65
2022/01/16 00:48:55;;;;;;;18.73;6.65;;;;;;;-4.01;75.75;101013.00;4406536;32;34001;-64
2022/01/16 00:51:23;;;;;;;13.35;6.47;;;;;;;-3.91;75.68;101040.34;4407077;32;33712;-63
2022/01/16 00:53:50;;;;;;;16.20;5.97;;;;;;;-3.86;75.35;101039.28;4392951;32;33616;-64
2022/01/16 00:56:18;;;;;;;13.13;5.93;;;;;;;-4.02;75.97;101050.78;4407841;32;33901;-63
2022/01/16 00:58:46;;;;;;;15.77;5.87;;;;;;;-3.91;75.92;101064.75;4407115;32;33279;-64
2022/01/16 01:01:14;;;;;;;15.90;5.32;;;;;;;-3.71;75.22;101036.78;4407615;32;33407;-63
2022/01/16 01:03:42;;;;;;;13.52;5.32;;;;;;;-3.40;73.70;101024.56;4393545;32;33963;-64
2022/01/16 01:06:09;;;;;;;13.00;5.65;;;;;;;-3.67;74.43;101047.47;4393240;32;33946;-66
2022/01/16 01:08:37;;;;;;;17.73;5.70;;;;;;;-3.77;74.75;101030.28;4406077;32;33794;-64
2022/01/16 01:11:10;;;;;;;12.07;5.37;;;;;;;-3.90;75.57;101056.44;4406776;32;33903;-64
2022/01/16 01:16:25;;;;;;;12.48;6.10;;;;;;;-3.79;75.32;101076.38;4406644;32;33723;-66
2022/01/16 01:18:52;;;;;;;16.77;5.95;;;;;;;-3.87;75.36;101052.66;4407560;32;34289;-62
2022/01/16 01:21:29;;;;;;;14.77;5.43;;;;;;;-3.63;74.58;100961.03;4407421;32;33859;-63
2022/01/16 01:23:58;;;;;;;16.15;5.70;;;;;;;-2.68;71.32;100958.56;4392926;32;34196;-64
2022/01/16 01:26:32;;;;;;;15.40;6.90;;;;;;;-3.36;72.52;100981.12;4406828;32;34778;-65
2022/01/16 01:28:59;;;;;;;14.52;5.55;;;;;;;-3.77;74.51;100966.97;4406293;32;33770;-65
2022/01/16 01:31:29;;;;;;;18.70;5.87;;;;;;;-3.88;75.41;100968.91;4406835;32;34297;-64
2022/01/16 01:33:57;;;;;;;16.92;6.65;;;;;;;-3.79;75.30;101008.00;4392373;32;33836;-63
2022/01/16 01:36:25;;;;;;;20.67;6.87;;;;;;;-3.42;73.95;101005.72;4406326;32;34585;-63
2022/01/16 01:38:52;;;;;;;17.00;6.53;;;;;;;-2.27;70.22;101025.84;4405665;32;34065;-64
2022/01/16 01:41:20;;;;;;;14.48;5.80;;;;;;;-1.86;67.90;101032.19;4406455;32;34587;-64
2022/01/16 01:52:06;;;;;;;12.37;5.82;;;;;;;-1.68;63.92;101052.78;4397653;32;34525;-66
2022/01/16 01:54:34;;;;;;;14.35;5.97;;;;;;;-1.76;64.10;101012.91;4395872;32;34452;-66
2022/01/16 01:57:01;;;;;;;15.80;5.53;;;;;;;-1.07;61.93;101024.03;4408511;32;33846;-63
2022/01/16 01:59:30;;;;;;;14.80;5.40;;;;;;;-2.89;66.50;101033.03;4397841;32;33710;-62
2022/01/16 02:01:58;;;;;;;12.10;4.87;;;;;;;-4.04;71.63;101037.03;4414220;26;33733;-88
2022/01/16 02:04:27;;;;;;;13.43;6.37;;;;;;;-4.42;73.59;101036.69;4379085;32;32339;-88
2022/01/16 02:06:55;;;;;;;12.55;5.18;;;;;;;-4.57;74.58;101029.75;4404117;26;32393;-64
2022/01/16 02:09:23;;;;;;;12.57;5.80;;;;;;;-4.87;76.24;101024.31;4418790;32;31283;-64
2022/01/16 02:11:51;;;;;;;15.68;5.53;;;;;;;-4.85;76.89;101030.47;4404314;32;33633;-64
2022/01/16 02:14:28;;;;;;;13.23;4.60;;;;;;;-4.64;76.42;101043.25;4414549;32;33880;-64
2022/01/16 02:28:20;;;;;;;16.35;5.72;;;;;;;-2.83;70.72;101058.22;4413675;32;33844;-64
2022/01/16 02:36:17;;;;;;;10.00;4.53;;;;;;;-2.34;66.32;101053.75;4415559;32;34481;-65
2022/01/16 02:38:46;;;;;;;16.67;5.97;;;;;;;-3.33;69.82;101045.53;4421357;32;33801;-64
2022/01/16 02:41:13;;;;;;;13.02;5.45;;;;;;;-4.28;73.34;101061.16;4420516;32;33802;-64
2022/01/16 02:43:46;;;;;;;14.50;5.47;;;;;;;-4.57;75.39;101055.94;4407288;32;33710;-64
2022/01/16 02:48:48;;;;;;;13.70;5.20;;;;;;;-4.47;75.67;101068.09;4412179;32;33940;-64
2022/01/16 02:51:18;;;;;;;17.87;5.93;;;;;;;-4.61;76.63;101068.91;4408693;32;34291;-64
2022/01/16 02:53:46;;;;;;;15.60;5.57;;;;;;;-4.64;76.91;101058.41;4414785;32;34677;-62
2022/01/16 02:56:15;;;;;;;19.42;7.65;;;;;;;-3.79;74.63;101057.00;4424893;32;33873;-62
2022/01/16 02:58:43;;;;;;;14.87;5.75;;;;;;;-2.93;70.84;101045.19;4426381;32;33839;-62
2022/01/16 03:01:12;;;;;;;13.15;5.35;;;;;;;-2.53;68.16;101040.63;4425519;32;34195;-62
2022/01/16 03:03:40;;;;;;;13.02;5.93;;;;;;;-2.49;66.62;101041.84;4429592;32;34114;-62
2022/01/16 03:06:08;;;;;;;14.15;6.07;;;;;;;-2.59;66.71;101038.25;4401460;32;34012;-63
2022/01/16 03:08:35;;;;;;;14.20;5.15;;;;;;;-2.30;65.33;101032.19;4419631;32;80708;-62
2022/01/16 03:13:33;;;;;;;13.50;5.37;;;;;;;-1.63;63.08;101041.50;4411535;32;31972;-62
2022/01/16 03:16:01;;;;;;;13.77;5.35;;;;;;;-1.84;62.95;101035.78;4391621;32;34000;-62
2022/01/16 03:23:46;;;;;;;10.50;4.72;;;;;;;-1.24;60.75;101029.78;4412845;32;33824;-62
2022/01/16 03:26:13;;;;;;;13.85;5.37;;;;;;;-1.33;60.75;101017.69;4415805;32;34594;-62
2022/01/16 03:28:41;;;;;;;13.45;5.30;;;;;;;-1.61;61.19;101025.69;4419661;32;34715;-62
2022/01/16 03:31:08;;;;;;;12.32;5.00;;;;;;;-1.49;61.06;101021.06;4418546;32;33278;-62
2022/01/16 03:33:37;;;;;;;16.33;5.47;;;;;;;-1.67;60.91;101026.66;4426592;32;34680;-62
2022/01/16 03:36:04;;;;;;;15.27;4.72;;;;;;;-2.51;64.16;101025.53;4423432;32;33696;-63
2022/01/16 03:38:32;;;;;;;13.77;5.68;;;;;;;-2.50;63.80;101029.91;4423108;32;34978;-62
2022/01/16 03:41:01;;;;;;;13.85;6.20;;;;;;;-2.34;63.55;101028.38;4420677;32;33645;-62
2022/01/16 03:43:28;;;;;;;14.00;6.60;;;;;;;-2.06;62.79;101026.50;4423118;32;33693;-63
2022/01/16 03:45:56;;;;;;;13.32;6.28;;;;;;;-2.67;64.26;101020.34;4407294;32;34588;-65
2022/01/16 03:48:24;;;;;;;17.37;6.82;;;;;;;-2.58;63.99;101019.75;4415479;32;33952;-62
2022/01/16 03:50:51;;;;;;;12.63;5.30;;;;;;;-3.69;67.57;101017.59;4433048;32;33468;-62
2022/01/16 03:53:18;;;;;;;17.87;6.50;;;;;;;-3.22;67.32;101019.84;4411528;32;33836;-63
2022/01/16 03:55:47;;;;;;;16.92;5.55;;;;;;;-2.37;64.43;101012.84;4423150;32;33470;-62
2022/01/16 03:58:14;;;;;;;15.85;5.80;;;;;;;-2.44;63.43;101010.31;4423429;32;34568;-62
2022/01/16 04:00:42;;;;;;;12.60;5.50;;;;;;;-3.92;67.20;101022.44;4410705;32;33382;-63
2022/01/16 04:03:11;;;;;;;12.80;4.50;;;;;;;-4.77;70.69;101009.56;4418022;32;33693;-62
2022/01/16 04:05:39;;;;;;;14.52;4.95;;;;;;;-3.86;69.24;101002.91;4424080;32;33900;-62
2022/01/16 04:08:06;;;;;;;12.95;5.03;;;;;;;-2.95;66.09;101004.44;4401143;32;33857;-62
2022/01/16 04:10:34;;;;;;;12.45;4.35;;;;;;;-4.00;69.67;101013.91;4405406;32;33178;-62
2022/01/16 04:13:03;;;;;;;10.43;4.03;;;;;;;-3.32;67.87;101001.72;4404327;32;33597;-62
2022/01/16 04:15:33;;;;;;;15.20;4.60;;;;;;;-2.80;66.08;101002.78;4406742;32;34497;-63
2022/01/16 04:18:04;;;;;;;13.13;4.65;;;;;;;-2.62;65.04;101009.09;4398090;32;33856;-62
2022/01/16 04:20:33;;;;;;;12.80;5.45;;;;;;;-2.30;63.01;100997.59;4395745;32;35060;-62
2022/01/16 04:23:00;;;;;;;14.57;5.50;;;;;;;-4.89;70.86;101013.09;4398049;32;33935;-62
2022/01/16 04:25:28;;;;;;;29.63;11.23;;;;;;;-5.24;73.32;101018.06;4403727;32;33663;-62
2022/01/16 04:27:56;;;;;;;20.83;8.48;;;;;;;-4.90;73.03;101013.84;4403612;32;33746;-62
2022/01/16 04:30:23;;;;;;;13.90;5.97;;;;;;;-3.40;67.82;101008.41;4404586;32;33442;-63
2022/01/16 04:32:51;;;;;;;15.05;5.78;;;;;;;-3.03;66.30;101003.56;4403180;32;34371;-62
2022/01/16 04:35:18;;;;;;;12.25;5.80;;;;;;;-3.96;68.75;101011.03;4404198;32;33458;-62
2022/01/16 04:37:46;;;;;;;13.45;5.68;;;;;;;-3.91;68.91;101017.56;4403725;32;34145;-62
2022/01/16 04:40:40;;;;;;;12.90;5.20;;;;;;;-4.75;71.55;101019.19;4398934;32;33461;-62
2022/01/16 04:45:58;;;;;;;13.27;5.22;;;;;;;-4.64;70.59;101012.91;4402623;32;33752;-61
2022/01/16 04:48:26;;;;;;;14.48;5.32;;;;;;;-5.02;72.71;101008.12;4401025;32;34237;-62
2022/01/16 04:50:54;;;;;;;12.02;5.90;;;;;;;-5.32;74.98;101017.84;4401549;32;33344;-62
2022/01/16 04:53:22;;;;;;;16.95;6.50;;;;;;;-5.37;74.87;101015.66;4412350;32;33776;-62
2022/01/16 04:55:49;;;;;;;20.42;7.00;;;;;;;-5.37;75.43;101013.13;4405186;32;33936;-62
2022/01/16 04:58:18;;;;;;;12.98;6.60;;;;;;;-5.34;75.92;101018.53;4398044;32;33813;-62
2022/01/16 05:00:50;;;;;;;14.48;6.60;;;;;;;-3.88;71.14;101004.34;4400202;32;34229;-63
2022/01/16 05:03:18;;;;;;;15.80;5.90;;;;;;;-3.31;68.58;100999.37;4404969;32;33874;-63
2022/01/16 05:05:45;;;;;;;14.68;5.82;;;;;;;-2.97;67.26;100998.28;4401825;32;34017;-63
2022/01/16 05:08:13;;;;;;;12.73;5.62;;;;;;;-3.02;66.26;100995.19;4407774;32;34300;-64
2022/01/16 05:10:40;;;;;;;14.45;5.93;;;;;;;-2.76;64.95;100994.81;4427565;32;31912;-63
2022/01/16 05:18:40;;;;;;;18.87;8.07;;;;;;;-2.31;62.14;100987.25;4429999;32;34907;-63
2022/01/16 05:21:08;;;;;;;30.10;9.23;;;;;;;-2.24;61.41;100985.59;4407345;32;34351;-63
2022/01/16 05:23:36;;;;;;;23.83;9.60;;;;;;;-2.29;61.45;100995.94;4433498;32;33760;-63
2022/01/16 05:26:05;;;;;;;32.50;12.50;;;;;;;-3.71;66.37;100996.25;4418389;32;33965;-63
2022/01/16 05:28:33;;;;;;;25.80;10.52;;;;;;;-2.49;62.76;100986.03;4418510;32;33723;-63
2022/01/16 05:31:00;;;;;;;24.75;10.23;;;;;;;-3.19;64.30;100989.78;4420705;32;33127;-63
2022/01/16 05:33:28;;;;;;;21.15;10.80;;;;;;;-2.91;64.24;101003.19;4405490;32;33896;-63
2022/01/16 05:35:56;;;;;;;19.20;8.23;;;;;;;-2.41;63.20;101003.06;4421550;32;34040;-63
2022/01/16 05:38:23;;;;;;;20.10;7.78;;;;;;;-3.02;63.59;100995.19;4401897;32;33738;-63
2022/01/16 05:40:51;;;;;;;22.40;8.15;;;;;;;-4.09;67.86;101006.13;4417919;32;34172;-63
2022/01/16 05:43:19;;;;;;;16.50;7.55;;;;;;;-2.83;64.31;100997.38;4427012;32;33581;-64
2022/01/16 05:45:46;;;;;;;17.70;7.55;;;;;;;-2.60;63.57;101008.53;4427073;32;33801;-64
2022/01/16 05:48:14;;;;;;;19.75;7.90;;;;;;;-2.29;61.89;101009.53;4428085;32;34547;-64
2022/01/16 05:50:41;;;;;;;17.92;9.02;;;;;;;-2.40;61.87;101015.00;4392095;32;31914;-64
2022/01/16 05:53:09;;;;;;;16.98;7.97;;;;;;;-2.24;61.19;101017.66;4418229;32;34733;-64
2022/01/16 05:55:39;;;;;;;21.58;8.80;;;;;;;-3.44;63.74;101017.31;4422002;32;34532;-65
2022/01/16 05:58:07;;;;;;;18.98;8.02;;;;;;;-2.68;62.64;101014.38;4415450;32;33855;-64
2022/01/16 06:00:37;;;;;;;23.75;10.57;;;;;;;-2.67;62.13;101023.75;4413110;32;34065;-64
2022/01/16 06:03:06;;;;;;;30.00;13.52;;;;;;;-2.57;61.50;101034.28;4420483;32;33647;-64
2022/01/16 06:05:33;;;;;;;30.40;14.63;;;;;;;-2.32;61.47;101026.94;4406922;32;33770;-63
2022/01/16 06:08:06;;;;;;;28.87;12.50;;;;;;;-2.32;61.70;101026.94;4430422;32;34011;-63
2022/01/16 06:10:34;;;;;;;31.60;14.70;;;;;;;-3.20;62.55;101028.53;4425985;32;34087;-64
2022/01/16 06:13:02;;;;;;;26.27;12.82;;;;;;;-2.50;61.30;101029.91;4408882;32;33813;-63
2022/01/16 06:15:30;;;;;;;30.92;13.88;;;;;;;-4.75;67.69;101030.91;4411727;32;35183;-63
2022/01/16 06:18:00;;;;;;;34.53;17.15;;;;;;;-3.58;64.83;101035.00;4420617;32;34878;-63
2022/01/16 06:20:28;;;;;;;24.67;11.77;;;;;;;-3.09;63.59;101028.19;4419974;32;32057;-63
2022/01/16 06:22:55;;;;;;;32.05;16.65;;;;;;;-2.91;62.41;101038.69;4421106;32;34349;-63
2022/01/16 06:25:25;;;;;;;37.58;17.58;;;;;;;-2.64;61.58;101041.88;4431321;32;33876;-63
2022/01/16 06:27:53;;;;;;;27.27;13.10;;;;;;;-2.78;62.16;101039.38;4422843;32;34486;-63
2022/01/16 06:30:21;;;;;;;34.28;15.45;;;;;;;-2.61;61.47;101037.19;4412663;32;33585;-63
2022/01/16 06:32:49;;;;;;;21.62;9.60;;;;;;;-2.58;61.04;101034.97;4422738;32;34623;-63
2022/01/16 06:35:16;;;;;;;22.70;10.45;;;;;;;-2.69;60.54;101047.16;4422990;32;33771;-64
2022/01/16 06:37:44;;;;;;;36.80;17.30;;;;;;;-2.75;60.58;101037.19;4415910;32;33975;-63
2022/01/16 06:40:12;;;;;;;24.77;10.70;;;;;;;-2.74;61.32;101044.09;4396975;32;31841;-63
2022/01/16 06:42:41;;;;;;;24.98;12.52;;;;;;;-2.75;61.15;101041.38;4422891;32;34418;-63
2022/01/16 06:45:10;;;;;;;29.20;12.18;;;;;;;-2.58;60.55;101040.06;4423372;32;34053;-64
2022/01/16 06:47:38;;;;;;;29.02;11.27;;;;;;;-3.34;61.97;101048.78;4418921;32;33996;-63
2022/01/16 06:50:07;;;;;;;21.30;9.95;;;;;;;-2.88;61.35;101049.16;4406227;32;34399;-63
2022/01/16 06:52:34;;;;;;;22.92;9.90;;;;;;;-3.07;61.16;101041.94;4422221;32;34156;-63
2022/01/16 06:55:03;;;;;;;28.00;10.15;;;;;;;-3.19;61.32;101032.88;4406442;32;34578;-63
2022/01/16 06:57:30;;;;;;;27.95;10.30;;;;;;;-4.23;64.47;101049.06;4421589;32;33914;-63
2022/01/16 06:59:58;;;;;;;21.50;10.15;;;;;;;-5.37;68.50;101055.13;4400597;32;32473;-64
2022/01/16 07:02:27;;;;;;;26.95;12.50;;;;;;;-3.96;64.94;101041.41;4405370;32;33637;-63
2022/01/16 07:04:54;;;;;;;36.13;15.00;;;;;;;-4.83;67.93;101044.19;4413402;32;34538;-63
2022/01/16 07:07:22;;;;;;;41.83;18.50;;;;;;;-4.30;67.56;101047.41;4419619;32;33884;-63
2022/01/16 07:09:49;;;;;;;41.78;18.17;;;;;;;-3.98;66.86;101038.72;4398104;32;33591;-63
2022/01/16 07:12:17;;;;;;;38.13;17.55;;;;;;;-4.30;68.53;101042.34;4411924;32;33899;-63
2022/01/16 07:14:44;;;;;;;41.92;18.20;;;;;;;-3.57;66.16;101035.19;4425453;32;33891;-63
2022/01/16 07:17:13;;;;;;;50.38;20.23;;;;;;;-3.51;65.82;101045.16;4426339;32;33511;-63
2022/01/16 07:19:40;;;;;;;41.10;18.65;;;;;;;-4.19;70.07;101062.28;4423356;32;34211;-63
2022/01/16 07:22:07;;;;;;;39.17;18.87;;;;;;;-3.71;69.15;101064.63;4420544;32;34452;-63
2022/01/16 07:24:35;;;;;;;41.00;18.55;;;;;;;-3.00;66.84;101062.19;4416767;32;33857;-63
2022/01/16 07:27:03;;;;;;;44.40;20.37;;;;;;;-2.78;65.47;101067.28;4414630;32;33895;-63
2022/01/16 07:29:31;;;;;;;47.75;20.65;;;;;;;-2.95;65.57;101064.41;4402569;32;34071;-63
2022/01/16 07:31:59;;;;;;;49.83;20.75;;;;;;;-2.44;63.96;101067.03;4407030;32;33974;-63
2022/01/16 07:34:27;;;;;;;49.20;22.77;;;;;;;-2.39;64.06;101055.78;4424381;32;33952;-63
2022/01/16 07:36:54;;;;;;;50.90;21.45;;;;;;;-2.43;64.69;101055.28;4425899;32;33298;-65
2022/01/16 07:39:22;;;;;;;45.35;20.17;;;;;;;-2.39;65.59;101052.34;4415169;32;33310;-63
2022/01/16 07:41:49;;;;;;;42.90;19.95;;;;;;;-1.93;64.36;101055.09;4420996;32;34579;-63
2022/01/16 07:44:19;;;;;;;38.38;17.48;;;;;;;-2.09;64.77;101056.59;4405970;32;33624;-64
2022/01/16 07:46:47;;;;;;;41.00;18.42;;;;;;;-1.96;64.54;101059.81;4423934;32;33961;-64
2022/01/16 07:49:14;;;;;;;46.60;21.00;;;;;;;-1.88;64.40;101064.13;4415682;32;33951;-63
2022/01/16 07:51:42;;;;;;;51.55;21.42;;;;;;;-1.76;64.53;101059.53;4426427;32;33600;-63
2022/01/16 07:54:09;;;;;;;51.42;21.05;;;;;;;-1.34;62.84;101056.56;4418079;32;34587;-63
2022/01/16 07:56:37;;;;;;;46.17;19.35;;;;;;;-1.49;63.08;101064.28;4409174;32;34294;-63
2022/01/16 07:59:05;;;;;;;42.85;19.48;;;;;;;-1.46;63.31;101051.91;4419267;32;34250;-63
2022/01/16 08:01:32;;;;;;;39.17;18.33;;;;;;;-1.38;62.62;101050.25;4418964;32;34552;-63
2022/01/16 08:04:00;;;;;;;40.03;18.67;;;;;;;-1.39;62.52;101049.34;4418040;32;34728;-64
2022/01/16 08:06:31;;;;;;;43.17;20.23;;;;;;;-1.39;62.65;101054.44;4405479;32;34265;-64
2022/01/16 08:08:59;;;;;;;42.35;19.30;;;;;;;-1.26;62.72;101050.69;4412565;32;31992;-64
2022/01/16 08:11:27;;;;;;;42.40;20.23;;;;;;;-1.51;63.63;101032.69;4399836;32;34419;-64
2022/01/16 08:13:54;;;;;;;41.22;20.00;;;;;;;-1.44;63.45;101025.03;4415007;32;33898;-63
2022/01/16 08:16:22;;;;;;;47.62;19.83;;;;;;;-1.43;63.65;101031.94;4417032;32;33673;-63
2022/01/16 08:18:50;;;;;;;43.40;20.05;;;;;;;-1.22;63.38;101024.88;4424565;32;33514;-63
2022/01/16 08:21:17;;;;;;;45.28;20.35;;;;;;;-1.10;63.13;101032.94;4422543;32;33882;-63
2022/01/16 08:23:44;;;;;;;49.72;20.85;;;;;;;-1.03;62.79;101030.34;4412473;32;34749;-63
2022/01/16 08:26:13;;;;;;;43.83;20.12;;;;;;;-0.95;63.04;101036.28;4413087;32;33917;-63
2022/01/16 08:28:40;;;;;;;50.20;20.42;;;;;;;-0.82;62.39;101021.62;4420745;32;33184;-62
2022/01/16 08:31:08;;;;;;;50.08;21.67;;;;;;;-0.62;62.22;101031.41;4420627;32;33732;-63
2022/01/16 08:33:36;;;;;;;48.75;21.67;;;;;;;-0.69;62.19;101019.69;4404391;32;34110;-62
2022/01/16 08:36:03;;;;;;;45.80;20.33;;;;;;;-0.58;62.15;101022.47;4415805;32;33649;-62
2022/01/16 08:38:32;;;;;;;50.97;22.73;;;;;;;-0.40;61.57;101006.66;4421997;32;34074;-63
2022/01/16 08:41:02;;;;;;;45.42;21.98;;;;;;;-0.42;61.78;100995.41;4420298;32;33620;-63
2022/01/16 08:43:30;;;;;;;40.00;18.42;;;;;;;-0.82;63.46;101001.28;4423892;32;34029;-63
2022/01/16 08:45:58;;;;;;;44.00;19.40;;;;;;;-0.71;63.99;100989.75;4412556;32;34598;-64
2022/01/16 08:48:27;;;;;;;37.28;18.62;;;;;;;-0.42;63.43;100990.31;4419312;32;33155;-63
2022/01/16 08:50:55;;;;;;;42.75;19.42;;;;;;;-0.57;64.18;100989.56;4425944;32;34793;-63
2022/01/16 08:53:22;;;;;;;38.72;19.10;;;;;;;-0.70;64.62;100982.25;4426723;32;34250;-63
2022/01/16 08:55:50;;;;;;;36.10;17.65;;;;;;;-0.45;64.56;100984.88;4409901;32;33657;-63
2022/01/16 08:58:18;;;;;;;36.08;18.92;;;;;;;-0.52;64.42;100972.25;4426593;32;33546;-63
2022/01/16 09:00:47;;;;;;;40.65;18.87;;;;;;;-0.17;64.03;100970.00;4431127;32;32694;-63
2022/01/16 09:03:16;;;;;;;41.45;19.80;;;;;;;-0.57;65.17;100970.88;4415695;32;33967;-63
2022/01/16 09:05:45;;;;;;;41.20;20.17;;;;;;;-0.65;65.82;100964.94;4412914;32;34588;-63
2022/01/16 09:08:16;;;;;;;40.08;20.02;;;;;;;0.08;63.47;100961.66;4422821;32;33094;-64
2022/01/16 09:10:45;;;;;;;44.97;19.58;;;;;;;-0.03;64.13;100967.28;4410102;32;33896;-64
2022/01/16 09:13:15;;;;;;;39.70;19.02;;;;;;;-0.13;64.34;100965.41;4428973;32;34551;-64
2022/01/16 09:15:44;;;;;;;41.75;20.17;;;;;;;-0.09;64.34;100962.44;4418090;32;32920;-64
2022/01/16 09:18:12;;;;;;;37.58;17.02;;;;;;;-0.08;63.90;100963.34;4413646;32;33357;-63
2022/01/16 09:20:40;;;;;;;37.88;18.95;;;;;;;-0.04;64.47;100965.44;4422612;32;33622;-64
2022/01/16 09:23:08;;;;;;;36.42;16.85;;;;;;;-0.06;64.32;100967.88;4403398;32;34665;-63
2022/01/16 09:25:36;;;;;;;34.80;17.05;;;;;;;0.43;62.33;100972.06;4409088;32;33826;-63
2022/01/16 09:28:04;;;;;;;42.60;17.25;;;;;;;0.08;63.82;100965.84;4427604;32;33742;-63
2022/01/16 09:30:32;;;;;;;40.35;17.80;;;;;;;0.69;61.69;100964.53;4403578;32;34086;-63
2022/01/16 09:33:00;;;;;;;35.72;16.55;;;;;;;0.66;61.84;100958.25;4418269;32;34477;-63
2022/01/16 09:35:31;;;;;;;33.42;16.80;;;;;;;0.47;61.82;100956.34;4396396;32;32325;-63
2022/01/16 09:37:58;;;;;;;32.63;15.70;;;;;;;0.55;61.39;100952.94;4418383;32;33163;-63
2022/01/16 09:40:26;;;;;;;36.33;16.92;;;;;;;0.78;61.35;100946.75;4418269;32;33627;-62
2022/01/16 09:42:55;;;;;;;39.15;18.05;;;;;;;1.01;60.67;100946.50;4422169;32;34809;-62
2022/01/16 09:45:22;;;;;;;37.92;19.00;;;;;;;0.98;60.89;100941.09;4407965;32;32767;-63
2022/01/16 09:47:50;;;;;;;35.85;19.02;;;;;;;0.95;60.35;100935.69;4419292;32;33275;-64
2022/01/16 09:50:23;;;;;;;39.40;18.77;;;;;;;0.96;60.73;100933.28;4416653;32;33564;-63
2022/01/16 09:52:52;;;;;;;39.08;19.52;;;;;;;1.20;60.06;100939.06;4415787;32;33698;-64
2022/01/16 09:55:20;;;;;;;43.63;19.73;;;;;;;1.07;59.97;100941.13;4414921;32;33783;-64
2022/01/16 09:57:50;;;;;;;37.00;19.37;;;;;;;1.17;60.52;100938.75;4414279;32;33677;-64
2022/01/16 10:00:20;;;;;;;41.72;19.10;;;;;;;0.83;61.14;100925.16;4405082;32;33820;-63
2022/01/16 10:02:48;;;;;;;42.58;19.12;;;;;;;1.27;59.91;100923.59;4402320;32;34600;-64
2022/01/16 10:05:22;;;;;;;39.97;17.33;;;;;;;1.33;59.90;100924.22;4400339;32;33261;-64
2022/01/16 10:07:50;;;;;;;37.40;18.75;;;;;;;1.49;59.77;100918.06;4418132;32;33610;-64
2022/01/16 10:10:18;;;;;;;35.35;18.20;;;;;;;1.50;59.97;100912.19;4398551;32;33616;-64
2022/01/16 10:12:49;;;;;;;38.92;18.50;;;;;;;1.63;59.92;100904.09;4412232;32;34457;-62
2022/01/16 10:15:27;;;;;;;37.20;17.90;;;;;;;1.52;60.05;100906.47;4401550;32;34171;-63
2022/01/16 10:17:57;;;;;;;40.72;18.50;;;;;;;1.76;59.42;100895.22;4415248;32;33494;-63
2022/01/16 10:20:26;;;;;;;37.42;17.87;;;;;;;1.59;59.78;100895.22;4417454;32;33492;-62
2022/01/16 10:22:59;;;;;;;38.45;19.52;;;;;;;2.01;59.28;100895.03;4414839;32;34005;-63
2022/01/16 10:25:43;;;;;;;41.37;19.20;;;;;;;1.91;59.73;100894.87;4413806;32;33744;-62
2022/01/16 10:28:15;;;;;;;43.63;18.90;;;;;;;2.09;59.26;100891.56;4417260;32;33252;-62
2022/01/16 10:30:46;;;;;;;39.22;18.87;;;;;;;2.21;59.27;100890.94;4418048;32;33980;-62
2022/01/16 10:33:16;;;;;;;39.13;19.40;;;;;;;2.28;58.66;100894.22;4419355;32;33597;-63
2022/01/16 10:35:47;;;;;;;40.40;19.77;;;;;;;2.38;58.11;100880.66;4418786;32;32771;-63
2022/01/16 10:38:23;;;;;;;42.62;19.80;;;;;;;2.22;58.29;100887.59;4413480;32;34136;-63
2022/01/16 10:40:52;;;;;;;44.17;19.40;;;;;;;2.65;57.26;100886.56;4416310;32;34539;-65
2022/01/16 10:43:42;;;;;;;43.08;19.42;;;;;;;2.51;57.52;100878.50;4402379;32;34061;-63
2022/01/16 10:46:12;;;;;;;39.88;19.40;;;;;;;2.58;57.54;100874.84;4408178;32;33595;-63
2022/01/16 10:49:17;;;;;;;42.80;20.95;;;;;;;2.75;57.38;100866.19;4413137;32;34472;-65
2022/01/16 10:52:05;;;;;;;39.78;19.08;;;;;;;2.85;57.04;100868.81;4419241;32;34035;-64
2022/01/16 10:54:34;;;;;;;46.35;22.58;;;;;;;3.18;56.10;100872.66;4412798;32;34521;-64
2022/01/16 10:57:22;;;;;;;41.88;20.50;;;;;;;3.50;55.00;100872.13;4422406;32;34409;-65
2022/01/16 10:59:49;;;;;;;46.03;20.80;;;;;;;3.33;55.61;100874.06;4413161;32;33535;-65
2022/01/16 11:02:18;;;;;;;40.70;20.33;;;;;;;3.24;56.15;100868.09;4413011;32;34474;-66
2022/01/16 11:04:52;;;;;;;47.03;23.27;;;;;;;3.52;55.57;100868.06;4417067;32;34007;-64
2022/01/16 11:07:23;;;;;;;43.92;21.77;;;;;;;3.57;55.57;100868.44;4399175;32;34391;-66
2022/01/16 11:09:51;;;;;;;45.42;21.37;;;;;;;3.48;56.19;100869.44;4396564;32;33152;-64
2022/01/16 11:12:19;;;;;;;48.58;22.45;;;;;;;3.66;56.12;100865.03;4409656;32;33587;-65
2022/01/16 11:14:47;;;;;;;46.17;19.70;;;;;;;4.26;53.41;100851.47;4411702;32;33021;-64
2022/01/16 11:17:17;;;;;;;41.25;20.40;;;;;;;3.80;55.77;100855.13;4402948;32;32949;-64
2022/01/16 11:19:45;;;;;;;39.90;20.70;;;;;;;3.92;54.31;100856.19;4404396;32;33483;-64
2022/01/16 11:22:22;;;;;;;42.33;20.62;;;;;;;4.29;54.12;100847.50;4408872;32;36084;-63
2022/01/16 11:25:01;;;;;;;43.58;20.20;;;;;;;4.34;53.48;100847.88;4393438;32;33740;-64
2022/01/16 11:27:40;;;;;;;45.72;20.90;;;;;;;4.46;53.18;100836.13;4408191;32;34794;-64
2022/01/16 11:30:09;;;;;;;45.88;20.23;;;;;;;4.56;53.02;100834.31;4404298;32;33433;-65
2022/01/16 11:32:37;;;;;;;45.35;21.02;;;;;;;4.28;52.99;100834.53;4400983;32;34681;-65
2022/01/16 11:35:05;;;;;;;48.53;22.35;;;;;;;4.41;53.06;100806.59;4398698;32;33779;-64
2022/01/16 11:37:35;;;;;;;45.03;22.90;;;;;;;4.35;52.95;100806.09;4394097;32;33572;-65
2022/01/16 11:40:41;;;;;;;51.00;22.85;;;;;;;4.76;52.84;100792.41;4400494;32;33445;-64
2022/01/16 11:43:19;;;;;;;56.33;23.73;;;;;;;4.37;53.09;100795.97;4395172;32;34743;-65
2022/01/16 11:45:52;;;;;;;46.88;19.80;;;;;;;4.96;52.25;100799.19;4399987;32;33478;-64
2022/01/16 11:48:36;;;;;;;45.30;21.10;;;;;;;5.10;51.67;100793.53;4404325;32;34032;-63
2022/01/16 11:51:35;;;;;;;46.53;21.55;;;;;;;5.11;52.02;100800.44;4405628;32;31912;-63
2022/01/16 11:54:09;;;;;;;36.30;18.20;;;;;;;4.69;53.28;100793.53;4401836;32;32638;-62
2022/01/16 11:56:40;;;;;;;45.08;20.50;;;;;;;4.71;53.32;100798.03;4403978;32;33623;-63
2022/01/16 11:59:24;;;;;;;45.15;20.25;;;;;;;4.32;53.96;100793.88;4400506;32;34578;-62
2022/01/16 12:01:57;;;;;;;44.42;19.30;;;;;;;4.43;54.74;100788.78;4400130;32;33543;-63
2022/01/16 12:04:31;;;;;;;38.92;19.95;;;;;;;4.84;53.14;100784.53;4392556;32;34783;-62
2022/01/16 12:07:21;;;;;;;39.65;19.27;;;;;;;4.91;52.78;100778.28;4406228;32;34585;-62
2022/01/16 12:09:53;;;;;;;37.13;18.90;;;;;;;5.08;52.98;100771.94;4418071;32;34074;-62
2022/01/16 12:12:21;;;;;;;41.28;20.55;;;;;;;5.17;52.09;100758.97;4418745;32;34087;-62
2022/01/16 12:15:00;;;;;;;39.53;20.77;;;;;;;4.77;53.62;100748.91;4411538;32;33892;-62